Time;durP1;ratioP1;P1;durP2;ratioP2;P2;SDS_P1;SDS_P2;PMS_P1;PMS_P2;Temp;Humidity;BMP_temperature;BMP_pressure;BME280_temperature;BME280_humidity;BME280_pressure;Samples;Min_cycle;Max_cycle;Signal;HPM_P1;HPM_P2
2023/07/07 00:04:26;;;;;;;4.80;3.00;;;;;;;15.32;62.25;100803.47;10438463;28;20041;-73
2023/07/07 00:09:31;;;;;;;2.92;2.60;;;;;;;15.22;62.51;100808.03;10443526;28;20068;-74
2023/07/07 00:14:34;;;;;;;4.10;2.90;;;;;;;15.31;62.79;100811.75;10444886;28;20098;-74
2023/07/07 00:19:37;;;;;;;5.65;2.47;;;;;;;15.10;63.46;100814.59;10441905;28;20095;-74
2023/07/07 00:24:41;;;;;;;5.43;3.75;;;;;;;15.10;63.58;100820.88;10438329;28;20570;-74
2023/07/07 00:29:44;;;;;;;5.05;2.70;;;;;;;15.10;63.75;100820.03;10437811;28;20041;-74
2023/07/07 00:34:47;;;;;;;2.90;2.70;;;;;;;14.96;63.82;100821.31;10430965;28;20048;-74
2023/07/07 00:39:51;;;;;;;5.50;2.83;;;;;;;14.81;64.21;100821.75;10430578;28;20416;-74
2023/07/07 00:45:14;;;;;;;11.77;3.33;;;;;;;14.79;64.84;100826.41;10435706;28;20067;-74
2023/07/07 00:50:17;;;;;;;;;;;;;;;14.89;64.40;100823.75;10436425;28;20057;-74
2023/07/07 00:55:28;;;;;;;3.75;2.88;;;;;;;14.86;64.21;100834.81;10436794;28;19921;-74
2023/07/07 01:00:31;;;;;;;4.20;3.00;;;;;;;14.82;64.49;100839.66;10426783;28;20049;-74
2023/07/07 01:05:37;;;;;;;3.83;3.20;;;;;;;14.75;64.66;100832.25;10430806;28;20056;-73
2023/07/07 01:10:42;;;;;;;5.88;4.03;;;;;;;14.63;64.96;100842.34;10431590;28;20034;-74
2023/07/07 01:15:53;;;;;;;9.05;3.85;;;;;;;14.50;65.68;100833.63;10435706;28;20045;-74
2023/07/07 01:21:09;;;;;;;6.32;3.42;;;;;;;14.29;65.90;100836.38;10434521;28;20037;-74
2023/07/07 01:26:45;;;;;;;4.03;2.92;;;;;;;14.08;66.45;100831.06;10441125;28;20048;-74
2023/07/07 01:31:56;;;;;;;6.78;3.40;;;;;;;13.97;66.90;100828.47;10431776;28;20566;-74
2023/07/07 01:36:59;;;;;;;7.35;3.60;;;;;;;14.01;66.99;100828.03;10435563;28;20456;-74
2023/07/07 01:48:58;;;;;;;3.92;3.15;;;;;;;13.99;66.62;100823.75;10439823;28;20037;-75
2023/07/07 01:54:05;;;;;;;4.25;3.22;;;;;;;13.86;66.60;100824.00;10443125;28;20099;-74
2023/07/07 01:59:08;;;;;;;6.05;3.50;;;;;;;13.85;66.72;100824.97;10442403;28;20045;-74
2023/07/07 02:04:12;;;;;;;28.35;3.45;;;;;;;13.75;66.99;100821.41;10446106;28;20091;-73
2023/07/07 02:09:15;;;;;;;4.90;3.05;;;;;;;13.81;66.98;100821.69;10445557;28;20492;-74
2023/07/07 02:14:18;;;;;;;8.32;3.15;;;;;;;13.75;67.05;100819.53;10442922;28;20072;-74
2023/07/07 02:19:23;;;;;;;5.22;3.10;;;;;;;13.82;66.69;100826.13;10443088;28;20045;-74
2023/07/07 02:24:26;;;;;;;4.00;3.03;;;;;;;13.86;66.40;100819.47;10437373;28;20045;-74
2023/07/07 02:29:29;;;;;;;4.55;3.05;;;;;;;13.76;66.32;100821.25;10446440;28;20047;-74
2023/07/07 02:34:33;;;;;;;8.65;4.07;;;;;;;13.78;66.21;100832.78;10434312;28;20531;-73
2023/07/07 02:39:36;;;;;;;3.78;3.00;;;;;;;13.75;65.96;100826.81;10448108;28;20048;-74
2023/07/07 02:44:40;;;;;;;7.47;3.58;;;;;;;13.83;65.84;100819.72;10432322;28;20059;-73
2023/07/07 02:49:44;;;;;;;9.02;3.60;;;;;;;13.77;65.64;100817.56;10443616;28;20044;-74
2023/07/07 02:54:47;;;;;;;7.38;3.13;;;;;;;13.82;65.43;100811.75;10436948;28;20041;-74
2023/07/07 02:59:50;;;;;;;5.53;3.00;;;;;;;13.77;65.28;100822.97;10445904;28;20099;-74
2023/07/07 03:04:54;;;;;;;6.65;3.05;;;;;;;13.80;64.71;100817.31;10447684;28;20124;-75
2023/07/07 03:09:57;;;;;;;3.78;2.85;;;;;;;13.80;64.87;100825.41;10441460;28;20041;-75
2023/07/07 03:15:00;;;;;;;4.40;3.20;;;;;;;13.69;64.79;100820.94;10427045;28;20390;-75
2023/07/07 03:20:08;;;;;;;5.63;3.33;;;;;;;13.79;64.67;100833.63;10427094;28;20046;-73
2023/07/07 03:25:12;;;;;;;6.82;3.03;;;;;;;13.82;64.26;100830.66;10439899;28;20068;-75
2023/07/07 03:30:27;;;;;;;4.85;2.95;;;;;;;13.86;64.27;100848.31;10437801;28;20041;-74
2023/07/07 03:35:40;;;;;;;6.70;3.53;;;;;;;13.79;64.37;100845.28;10435238;28;20076;-74
2023/07/07 03:40:48;;;;;;;6.90;2.65;;;;;;;13.76;64.33;100847.41;10437014;28;20048;-74
2023/07/07 03:45:58;;;;;;;7.07;3.00;;;;;;;13.67;64.48;100855.31;10439587;28;20397;-74
2023/07/07 03:51:05;;;;;;;4.40;3.05;;;;;;;13.60;64.53;100864.94;10439834;28;20033;-74
2023/07/07 03:56:12;;;;;;;7.78;2.80;;;;;;;13.65;64.79;100878.03;10439860;28;20045;-74
2023/07/07 04:01:16;;;;;;;4.13;2.75;;;;;;;13.49;65.43;100868.56;10431483;28;20075;-74
2023/07/07 04:06:20;;;;;;;5.97;2.60;;;;;;;13.61;65.32;100882.00;10428788;28;20045;-75
2023/07/07 04:11:24;;;;;;;2.78;2.20;;;;;;;13.60;65.07;100885.66;10434784;28;20040;-72
2023/07/07 04:16:27;;;;;;;5.60;3.03;;;;;;;13.74;64.89;100884.47;10440445;28;20045;-73
2023/07/07 04:21:34;;;;;;;4.93;2.83;;;;;;;13.82;64.74;100895.47;10440180;28;20040;-75
2023/07/07 04:26:38;;;;;;;4.63;2.67;;;;;;;13.90;64.64;100892.94;10443029;28;20049;-74
2023/07/07 04:31:45;;;;;;;3.70;2.65;;;;;;;13.99;64.19;100893.97;10438657;28;20048;-74
2023/07/07 04:36:49;;;;;;;4.03;2.85;;;;;;;13.99;64.63;100893.97;10435850;28;20041;-74
2023/07/07 04:41:52;;;;;;;6.10;3.38;;;;;;;14.05;64.73;100894.31;10429706;28;20044;-74
2023/07/07 04:46:55;;;;;;;4.47;2.75;;;;;;;14.14;64.46;100911.56;10434098;28;20037;-73
2023/07/07 04:51:59;;;;;;;5.90;2.92;;;;;;;14.30;64.56;100906.50;10437565;28;20163;-74
2023/07/07 04:57:03;;;;;;;3.22;2.80;;;;;;;14.37;64.08;100905.00;10439382;28;20053;-75
2023/07/07 05:02:06;;;;;;;10.57;3.10;;;;;;;14.48;63.42;100903.19;10440831;28;20037;-74
2023/07/07 05:07:10;;;;;;;7.43;2.90;;;;;;;14.50;63.50;100904.75;10433521;28;20065;-75
2023/07/07 05:12:13;;;;;;;7.13;3.28;;;;;;;14.47;63.89;100906.91;10431318;28;20516;-74
2023/07/07 05:17:16;;;;;;;3.10;2.50;;;;;;;14.70;64.53;100904.81;10425208;28;20045;-74
2023/07/07 05:22:22;;;;;;;3.22;2.42;;;;;;;14.94;63.67;100913.41;10437117;28;20124;-73
2023/07/07 05:27:25;;;;;;;6.07;2.72;;;;;;;15.10;63.28;100918.28;10439620;28;20045;-75
2023/07/07 05:32:27;;;;;;;2.97;2.33;;;;;;;15.31;63.49;100914.59;10437622;28;20037;-75
2023/07/07 05:37:32;;;;;;;6.63;3.10;;;;;;;15.38;62.65;100919.31;10435280;28;20052;-74
2023/07/07 05:42:34;;;;;;;10.40;3.05;;;;;;;15.54;62.81;100926.00;10434774;28;20049;-74
2023/07/07 05:47:37;;;;;;;4.32;3.45;;;;;;;15.63;62.22;100920.59;10428174;28;20045;-74
2023/07/07 05:52:42;;;;;;;5.32;3.60;;;;;;;15.67;62.22;100929.28;10423436;28;20041;-74
2023/07/07 05:57:45;;;;;;;5.90;2.95;;;;;;;15.77;61.72;100932.84;10432651;28;20044;-74
2023/07/07 06:02:48;;;;;;;5.55;2.70;;;;;;;15.87;61.83;100935.50;10429717;28;20033;-74
2023/07/07 06:07:53;;;;;;;5.72;3.15;;;;;;;16.06;61.65;100934.63;10435874;28;20045;-74
2023/07/07 06:12:56;;;;;;;5.38;2.90;;;;;;;16.21;61.50;100930.44;10434979;28;20045;-75
2023/07/07 06:17:59;;;;;;;9.23;3.65;;;;;;;16.40;61.09;100932.25;10429387;28;20045;-75
2023/07/07 06:23:08;;;;;;;4.70;3.15;;;;;;;16.64;61.57;100928.97;10419696;28;20045;-75
2023/07/07 06:28:11;;;;;;;7.95;2.92;;;;;;;16.87;60.33;100932.16;10429837;28;20112;-74
2023/07/07 06:33:13;;;;;;;3.50;3.03;;;;;;;17.16;59.56;100933.84;10437139;28;20038;-75
2023/07/07 06:38:19;;;;;;;6.32;3.10;;;;;;;17.53;59.10;100925.53;10439277;28;20045;-75
2023/07/07 06:43:22;;;;;;;7.30;2.85;;;;;;;17.81;57.81;100926.28;10444455;28;20514;-75
2023/07/07 06:48:24;;;;;;;4.15;2.50;;;;;;;18.10;56.20;100928.72;10436628;28;20041;-74
2023/07/07 06:53:29;;;;;;;3.20;2.22;;;;;;;18.42;56.17;100934.47;10440162;28;20084;-75
2023/07/07 06:58:33;;;;;;;6.63;2.33;;;;;;;18.77;55.23;100926.13;10429811;28;20393;-74
2023/07/07 07:03:36;;;;;;;3.15;2.50;;;;;;;18.90;55.26;100930.31;10431592;28;20041;-75
2023/07/07 07:08:40;;;;;;;4.35;2.17;;;;;;;19.23;54.65;100937.50;10437891;28;20045;-76
2023/07/07 07:13:43;;;;;;;5.20;2.20;;;;;;;19.52;53.41;100936.16;10436355;28;20067;-76
2023/07/07 07:18:46;;;;;;;2.95;2.13;;;;;;;19.77;52.12;100936.19;10439805;28;20461;-75
2023/07/07 07:23:51;;;;;;;4.65;2.30;;;;;;;20.17;51.75;100939.91;10419536;28;20566;-75
2023/07/07 07:28:54;;;;;;;3.35;2.13;;;;;;;21.01;48.47;100933.78;10410654;28;20048;-75
2023/07/07 07:34:23;;;;;;;4.30;1.88;;;;;;;22.10;45.78;100923.56;10382600;28;20065;-75
2023/07/07 07:39:26;;;;;;;3.13;2.25;;;;;;;24.08;43.67;100928.78;10384992;28;20501;-75
2023/07/07 07:44:29;;;;;;;3.67;2.10;;;;;;;25.31;40.57;100928.94;10387961;28;20052;-75
2023/07/07 07:49:34;;;;;;;3.63;1.70;;;;;;;25.51;38.41;100925.38;10396801;28;20050;-75
2023/07/07 07:54:38;;;;;;;3.30;2.05;;;;;;;25.57;38.53;100932.78;10397628;28;20057;-75
2023/07/07 07:59:41;;;;;;;6.72;2.20;;;;;;;25.56;38.52;100933.81;10389805;28;20761;-75
2023/07/07 08:04:45;;;;;;;2.65;1.65;;;;;;;25.48;38.61;100926.66;10388883;28;20111;-76
2023/07/07 08:09:48;;;;;;;2.63;1.80;;;;;;;24.91;39.36;100923.31;10384787;28;20056;-76
2023/07/07 08:14:51;;;;;;;6.97;1.98;;;;;;;24.71;39.01;100920.50;10386792;28;20447;-75
2023/07/07 08:19:55;;;;;;;6.50;1.67;;;;;;;24.47;39.97;100932.00;10417493;28;20143;-76
2023/07/07 08:24:59;;;;;;;2.05;1.77;;;;;;;24.98;40.84;100931.56;10437950;28;20040;-76
2023/07/07 08:30:02;;;;;;;3.97;1.65;;;;;;;25.00;39.68;100931.38;10438049;28;20044;-75
2023/07/07 08:35:07;;;;;;;3.67;1.77;;;;;;;25.11;40.29;100928.91;10439400;28;20052;-76
2023/07/07 08:40:16;;;;;;;3.42;1.90;;;;;;;24.86;40.80;100934.06;10441520;28;20037;-75
2023/07/07 08:45:21;;;;;;;3.60;1.80;;;;;;;25.15;39.43;100927.44;10436419;28;20897;-77
2023/07/07 08:50:33;;;;;;;3.08;1.77;;;;;;;25.29;38.72;100927.47;10433596;28;20103;-76
2023/07/07 08:55:50;;;;;;;2.90;1.50;;;;;;;25.52;38.19;100932.56;10437218;28;20045;-75
2023/07/07 09:01:11;;;;;;;1.77;1.30;;;;;;;25.67;37.67;100936.00;10437275;28;20037;-76
2023/07/07 09:06:24;;;;;;;2.38;1.45;;;;;;;25.91;36.82;100936.41;10436964;28;20051;-77
2023/07/07 09:11:38;;;;;;;2.90;1.40;;;;;;;26.45;35.19;100938.06;10434022;28;20127;-76
2023/07/07 09:16:43;;;;;;;1.98;1.40;;;;;;;26.65;34.18;100941.56;10424467;28;20587;-78
2023/07/07 09:21:53;;;;;;;2.78;1.48;;;;;;;26.65;32.75;100941.56;10428676;28;20122;-76
2023/07/07 09:27:06;;;;;;;4.57;1.58;;;;;;;26.90;33.61;100938.09;10431064;28;20041;-77
2023/07/07 09:32:11;;;;;;;3.53;1.75;;;;;;;26.88;34.91;100938.34;10437595;28;20029;-76
2023/07/07 09:37:27;;;;;;;1.92;1.50;;;;;;;26.98;34.54;100937.00;10439531;28;20091;-76
2023/07/07 09:42:40;;;;;;;5.03;1.80;;;;;;;27.10;33.33;100941.63;10439722;28;20416;-76
2023/07/07 09:47:51;;;;;;;4.15;1.70;;;;;;;27.08;34.71;100935.47;10445151;28;20048;-77
2023/07/07 09:53:04;;;;;;;2.22;1.70;;;;;;;27.23;34.35;100937.91;10436652;28;20039;-76
2023/07/07 09:58:29;;;;;;;1.60;1.50;;;;;;;27.65;32.50;100938.31;10440900;28;20048;-76
2023/07/07 10:03:36;;;;;;;4.05;1.70;;;;;;;26.91;33.78;100926.03;10449774;28;20483;-76
2023/07/07 10:08:40;;;;;;;1.98;1.52;;;;;;;26.42;33.40;100928.31;10450854;28;20037;-75
2023/07/07 10:13:43;;;;;;;2.85;1.38;;;;;;;26.35;33.56;100918.38;10438355;28;20400;-75
2023/07/07 10:18:46;;;;;;;2.85;1.20;;;;;;;27.72;31.10;100916.16;10445244;28;20060;-75
2023/07/07 10:23:57;;;;;;;2.03;1.55;;;;;;;26.74;32.07;100933.91;10440703;28;20107;-75
2023/07/07 10:29:03;;;;;;;2.88;1.65;;;;;;;27.77;30.77;100917.19;10444616;28;20055;-75
2023/07/07 10:34:22;;;;;;;1.52;1.42;;;;;;;28.49;29.30;100914.75;10446034;28;20476;-75
2023/07/07 10:39:28;;;;;;;1.73;1.50;;;;;;;28.83;28.66;100911.63;10442341;28;20045;-75
2023/07/07 10:44:32;;;;;;;1.70;1.60;;;;;;;29.72;29.83;100904.34;10449256;28;20055;-75
2023/07/07 10:49:34;;;;;;;2.30;1.70;;;;;;;29.98;27.21;100908.59;10449495;28;20055;-75
2023/07/07 10:54:50;;;;;;;1.70;1.50;;;;;;;29.42;28.19;100917.38;10449490;28;20045;-75
2023/07/07 11:00:07;;;;;;;1.85;1.50;;;;;;;29.15;29.56;100910.34;10446138;28;20472;-75
2023/07/07 11:05:32;;;;;;;3.17;1.83;;;;;;;29.18;28.78;100895.19;10442072;28;20049;-75
2023/07/07 11:10:56;;;;;;;4.57;1.67;;;;;;;29.27;27.21;100907.63;10451956;28;20033;-75
2023/07/07 11:16:08;;;;;;;3.28;1.52;;;;;;;29.62;28.33;100901.34;10440987;28;20531;-73
2023/07/07 11:21:17;;;;;;;;;;;;;;;30.43;27.82;100890.47;10441116;28;20072;-75
2023/07/07 11:26:30;;;;;;;1.67;1.58;;;;;;;29.74;27.33;100899.41;10437169;28;20422;-75
2023/07/07 11:31:48;;;;;;;1.90;1.73;;;;;;;30.48;28.50;100885.88;10447726;28;20099;-75
2023/07/07 11:37:08;;;;;;;1.75;1.60;;;;;;;31.03;27.62;100878.97;10446250;28;20083;-75
2023/07/07 11:42:42;;;;;;;1.85;1.65;;;;;;;31.22;27.50;100885.16;10442149;28;20041;-75
2023/07/07 11:48:03;;;;;;;3.55;1.60;;;;;;;31.64;27.84;100878.34;10443567;28;20095;-75
2023/07/07 11:53:35;;;;;;;2.75;1.52;;;;;;;32.34;26.81;100872.22;10444793;28;20456;-75
2023/07/07 11:58:51;;;;;;;3.67;1.60;;;;;;;31.67;26.91;100875.94;10441385;28;20418;-75
2023/07/07 12:03:58;;;;;;;3.42;1.60;;;;;;;31.48;26.47;100871.72;10448952;28;20030;-75
2023/07/07 12:09:10;;;;;;;2.35;1.38;;;;;;;30.99;26.55;100874.16;10444365;28;20049;-75
2023/07/07 12:14:29;;;;;;;1.60;1.50;;;;;;;31.42;26.43;100864.41;10436317;28;20033;-75
2023/07/07 12:19:38;;;;;;;3.15;1.80;;;;;;;31.92;26.18;100861.59;10435335;28;20558;-74
2023/07/07 12:24:46;;;;;;;1.75;1.52;;;;;;;32.01;25.30;100854.53;10432883;28;20770;-75
2023/07/07 12:29:52;;;;;;;3.17;1.40;;;;;;;32.60;27.41;100845.56;10438776;28;20518;-75
2023/07/07 12:35:06;;;;;;;1.65;1.40;;;;;;;32.38;25.84;100850.31;10435372;28;20083;-75
2023/07/07 12:40:16;;;;;;;2.55;1.60;;;;;;;32.08;25.31;100847.94;10433544;28;20048;-76
2023/07/07 12:45:30;;;;;;;1.98;1.52;;;;;;;31.59;25.21;100837.47;10435838;28;20044;-76
2023/07/07 12:50:37;;;;;;;1.80;1.60;;;;;;;30.65;26.22;100849.94;10445141;28;20048;-76
2023/07/07 12:55:59;;;;;;;2.92;1.50;;;;;;;30.34;26.94;100845.69;10445447;28;20036;-75
2023/07/07 13:01:32;;;;;;;1.58;1.30;;;;;;;31.47;25.95;100836.72;10443028;28;20492;-75
2023/07/07 13:06:38;;;;;;;2.97;1.80;;;;;;;32.82;25.53;100831.63;10438863;28;20509;-75
2023/07/07 13:11:43;;;;;;;1.77;1.65;;;;;;;32.65;25.60;100833.66;10440925;28;20029;-76
2023/07/07 13:16:47;;;;;;;4.40;1.55;;;;;;;33.01;25.73;100823.75;10442705;28;20166;-76
2023/07/07 13:21:51;;;;;;;2.80;1.80;;;;;;;33.07;25.43;100825.47;10411857;28;20065;-76
2023/07/07 13:26:56;;;;;;;2.33;1.90;;;;;;;33.38;25.88;100814.66;10409556;28;20041;-75
2023/07/07 13:32:00;;;;;;;3.05;1.98;;;;;;;33.22;25.66;100821.19;10408387;28;20227;-76
2023/07/07 13:37:07;;;;;;;2.78;1.58;;;;;;;33.86;25.45;100821.09;10424673;28;20068;-75
2023/07/07 13:42:20;;;;;;;3.83;1.88;;;;;;;33.37;24.51;100824.09;10426618;28;20046;-76
2023/07/07 13:47:26;;;;;;;3.17;1.60;;;;;;;33.12;25.54;100816.34;10411374;28;20103;-75
2023/07/07 13:52:32;;;;;;;2.25;1.55;;;;;;;33.95;25.22;100815.84;10398050;28;20393;-74
2023/07/07 13:57:36;;;;;;;3.50;1.70;;;;;;;33.73;24.34;100802.91;10411801;28;20046;-75
2023/07/07 14:02:44;;;;;;;1.58;1.48;;;;;;;33.59;24.37;100807.25;10415224;28;20508;-75
2023/07/07 14:07:48;;;;;;;3.42;1.67;;;;;;;33.49;23.93;100796.06;10421152;28;20687;-76
2023/07/07 14:12:51;;;;;;;3.95;2.00;;;;;;;34.10;24.52;100795.63;10381120;28;20045;-76
2023/07/07 14:17:55;;;;;;;1.65;1.55;;;;;;;33.98;25.13;100791.09;10414562;28;20377;-76
2023/07/07 14:22:58;;;;;;;2.90;1.40;;;;;;;34.35;24.94;100792.09;10450182;28;20041;-76
2023/07/07 14:28:01;;;;;;;7.13;2.00;;;;;;;33.97;24.67;100788.56;10445583;28;20045;-76
2023/07/07 14:33:06;;;;;;;1.50;1.35;;;;;;;33.80;24.10;100794.34;10440127;28;20033;-75
2023/07/07 14:38:24;;;;;;;4.47;1.92;;;;;;;33.53;24.51;100786.91;10438874;28;20094;-76
2023/07/07 14:43:30;;;;;;;5.13;2.00;;;;;;;33.77;24.76;100778.16;10446735;28;20060;-76
2023/07/07 14:48:46;;;;;;;2.08;1.63;;;;;;;33.73;24.09;100775.06;10442853;28;20076;-77
2023/07/07 14:53:54;;;;;;;2.28;1.50;;;;;;;33.36;23.46;100777.88;10445418;28;20053;-76
2023/07/07 14:58:59;;;;;;;2.65;1.60;;;;;;;32.24;24.95;100763.69;10449602;28;20133;-76
2023/07/07 15:04:15;;;;;;;1.88;1.60;;;;;;;32.93;25.54;100764.97;10444843;28;20057;-75
2023/07/07 15:09:20;;;;;;;3.58;1.50;;;;;;;33.58;24.20;100763.00;10447984;28;20041;-76
2023/07/07 15:14:22;;;;;;;1.50;1.40;;;;;;;33.11;24.81;100762.63;10447983;28;20041;-76
2023/07/07 15:19:27;;;;;;;2.85;1.40;;;;;;;32.76;23.41;100759.56;10440851;28;20079;-76
2023/07/07 15:24:29;;;;;;;1.90;1.50;;;;;;;33.24;23.62;100747.47;10449195;28;20052;-76
2023/07/07 15:29:32;;;;;;;3.03;1.42;;;;;;;33.16;24.72;100742.41;10441735;28;20060;-76
2023/07/07 15:34:37;;;;;;;2.10;1.85;;;;;;;33.28;23.53;100742.19;10439581;28;20149;-75
2023/07/07 15:39:40;;;;;;;3.83;1.80;;;;;;;33.17;24.44;100743.22;10442669;28;20628;-75
2023/07/07 15:44:44;;;;;;;2.58;1.90;;;;;;;33.46;23.91;100732.56;10444035;28;20492;-75
2023/07/07 15:49:48;;;;;;;1.63;1.52;;;;;;;33.36;23.49;100733.34;10449717;28;20041;-75
2023/07/07 15:54:51;;;;;;;2.75;1.60;;;;;;;33.54;24.45;100727.34;10440093;28;20455;-75
2023/07/07 15:59:54;;;;;;;9.90;2.13;;;;;;;33.83;24.08;100720.53;10438861;28;20042;-75
2023/07/07 16:04:58;;;;;;;6.15;1.90;;;;;;;33.53;23.91;100722.03;10441694;28;20130;-75
2023/07/07 16:10:01;;;;;;;2.83;2.17;;;;;;;33.49;23.87;100721.72;10440675;28;20127;-75
2023/07/07 16:15:06;;;;;;;5.78;2.15;;;;;;;33.45;24.19;100719.75;10433172;28;20047;-75
2023/07/07 16:20:17;;;;;;;7.25;2.10;;;;;;;33.58;23.50;100716.47;10437886;28;20500;-75
2023/07/07 16:25:21;;;;;;;6.15;3.40;;;;;;;33.85;24.15;100709.97;10436120;28;20048;-75
2023/07/07 16:30:30;;;;;;;3.75;2.00;;;;;;;33.51;24.08;100710.31;10436018;28;20492;-75
2023/07/07 16:35:34;;;;;;;2.28;1.55;;;;;;;33.89;23.59;100694.38;10440356;28;20126;-75
2023/07/07 16:40:40;;;;;;;2.95;1.55;;;;;;;36.62;22.11;100700.09;10435470;28;20048;-75
2023/07/07 16:45:44;;;;;;;2.60;1.40;;;;;;;40.17;18.92;100694.53;10434217;28;20067;-76
2023/07/07 16:50:48;;;;;;;2.70;1.90;;;;;;;43.08;16.89;100690.88;10444854;28;20136;-75
2023/07/07 16:55:51;;;;;;;6.40;4.90;;;;;;;44.57;16.48;100684.00;10445761;28;20048;-75
2023/07/07 17:00:54;;;;;;;4.70;3.88;;;;;;;45.09;16.04;100688.28;10440590;28;20053;-75
2023/07/07 17:06:00;;;;;;;5.28;4.65;;;;;;;45.31;15.62;100678.50;10434110;28;20045;-76
2023/07/07 17:11:11;;;;;;;1.80;1.50;;;;;;;45.31;15.64;100679.38;10444071;28;20052;-75
2023/07/07 17:16:18;;;;;;;2.35;1.40;;;;;;;44.64;16.21;100678.59;10447678;28;20067;-75
2023/07/07 17:21:24;;;;;;;1.40;1.30;;;;;;;44.69;15.96;100683.22;10434370;28;20052;-76
2023/07/07 17:26:29;;;;;;;5.10;1.98;;;;;;;46.25;15.11;100673.84;10438235;28;20045;-76
2023/07/07 17:31:33;;;;;;;3.22;1.58;;;;;;;46.27;15.39;100669.44;10440995;28;20484;-76
2023/07/07 17:36:38;;;;;;;4.05;1.75;;;;;;;45.47;15.99;100670.94;10428289;28;20048;-75
2023/07/07 17:41:42;;;;;;;1.70;1.60;;;;;;;45.01;16.35;100669.38;10439077;28;20508;-76
2023/07/07 17:46:45;;;;;;;1.50;1.40;;;;;;;44.46;16.59;100663.81;10443782;28;20499;-75
2023/07/07 17:51:49;;;;;;;3.67;1.65;;;;;;;43.17;16.75;100672.75;10443747;28;20056;-76
2023/07/07 17:56:52;;;;;;;2.70;1.50;;;;;;;38.02;20.16;100667.53;10437828;28;20045;-75
2023/07/07 18:01:56;;;;;;;2.08;1.67;;;;;;;33.56;24.14;100679.72;10436700;28;20045;-75
2023/07/07 18:07:00;;;;;;;1.80;1.58;;;;;;;31.50;26.21;100681.63;10435932;28;20036;-75
2023/07/07 18:12:08;;;;;;;2.20;1.40;;;;;;;30.11;27.65;100676.75;10439337;28;20152;-75
2023/07/07 18:17:14;;;;;;;3.10;1.75;;;;;;;29.09;29.13;100684.50;10442031;28;20582;-75
2023/07/07 18:22:38;;;;;;;1.83;1.60;;;;;;;28.38;29.99;100683.50;10439668;28;20758;-75
2023/07/07 18:27:41;;;;;;;2.75;1.80;;;;;;;27.96;30.69;100677.94;10443530;28;20057;-74
2023/07/07 18:32:44;;;;;;;3.83;2.03;;;;;;;27.78;31.26;100673.25;10442012;28;20041;-73
2023/07/07 18:37:48;;;;;;;1.75;1.65;;;;;;;27.54;32.44;100682.47;10443382;28;20520;-75
2023/07/07 18:42:53;;;;;;;2.60;1.73;;;;;;;27.17;32.67;100677.72;10443384;28;20049;-74
2023/07/07 18:47:57;;;;;;;3.53;1.88;;;;;;;26.87;33.15;100688.59;10443413;28;20049;-73
2023/07/07 18:53:04;;;;;;;1.90;1.70;;;;;;;26.69;33.71;100681.09;10449127;28;20060;-75
2023/07/07 18:58:09;;;;;;;2.75;1.70;;;;;;;26.53;34.07;100687.16;10442419;28;20120;-76
2023/07/07 19:03:13;;;;;;;2.47;1.70;;;;;;;26.31;35.06;100681.16;10438951;28;20064;-75
2023/07/07 19:08:18;;;;;;;1.98;1.40;;;;;;;26.11;35.23;100681.25;10449825;28;20049;-73
2023/07/07 19:13:23;;;;;;;4.00;1.80;;;;;;;25.91;35.62;100680.50;10441361;28;20051;-75
2023/07/07 19:18:34;;;;;;;2.05;1.83;;;;;;;25.69;36.56;100682.69;10446859;28;20504;-75
2023/07/07 19:23:38;;;;;;;3.63;1.85;;;;;;;25.56;37.08;100678.91;10455240;28;20040;-75
2023/07/07 19:28:42;;;;;;;1.92;1.80;;;;;;;25.40;37.28;100679.38;10452508;28;20393;-75
2023/07/07 19:33:45;;;;;;;3.42;2.05;;;;;;;25.21;37.56;100689.34;10450757;28;20037;-76
2023/07/07 19:38:52;;;;;;;4.50;2.25;;;;;;;24.99;37.95;100696.97;10449004;28;20091;-75
2023/07/07 19:43:55;;;;;;;3.42;1.80;;;;;;;24.77;38.23;100693.59;10443814;28;20044;-76
2023/07/07 19:49:00;;;;;;;4.63;1.95;;;;;;;24.64;38.98;100697.16;10445070;28;20568;-75
2023/07/07 19:54:04;;;;;;;6.93;1.63;;;;;;;24.45;39.40;100698.81;10448790;28;20052;-75
2023/07/07 19:59:12;;;;;;;4.97;2.03;;;;;;;24.31;39.53;100700.66;10450480;28;20099;-75
2023/07/07 20:04:15;;;;;;;2.67;1.85;;;;;;;24.13;40.45;100703.13;10449126;28;20069;-75
2023/07/07 20:09:21;;;;;;;2.67;2.08;;;;;;;23.96;40.91;100702.66;10445353;28;20389;-76
2023/07/07 20:14:24;;;;;;;2.72;1.85;;;;;;;23.87;41.25;100706.63;10444510;28;20041;-75
2023/07/07 20:19:27;;;;;;;1.58;1.48;;;;;;;23.68;42.46;100713.69;10430199;28;20048;-75
2023/07/07 20:24:31;;;;;;;5.28;1.98;;;;;;;23.34;42.92;100706.28;10397355;28;20064;-75
2023/07/07 20:29:34;;;;;;;2.80;2.10;;;;;;;23.24;42.99;100708.56;10416738;28;20054;-75
2023/07/07 20:34:37;;;;;;;4.10;1.77;;;;;;;23.20;43.05;100708.97;10406333;28;20038;-75
2023/07/07 20:39:41;;;;;;;3.88;2.13;;;;;;;23.13;42.56;100716.28;10405813;28;20512;-74
2023/07/07 20:44:44;;;;;;;4.20;2.33;;;;;;;23.04;42.50;100722.94;10399982;28;20045;-75
2023/07/07 20:49:47;;;;;;;2.53;1.77;;;;;;;22.89;42.69;100719.44;10412993;28;20487;-74
2023/07/07 20:54:51;;;;;;;4.90;2.10;;;;;;;22.81;43.39;100725.03;10417255;28;20707;-74
2023/07/07 20:59:54;;;;;;;5.53;2.13;;;;;;;22.72;43.00;100718.84;10415935;28;20045;-74
2023/07/07 21:04:57;;;;;;;5.63;2.33;;;;;;;22.62;43.20;100721.91;10417286;28;20447;-75
2023/07/07 21:10:18;;;;;;;4.30;1.98;;;;;;;22.55;43.72;100719.13;10417731;28;20037;-75
2023/07/07 21:15:21;;;;;;;3.65;2.15;;;;;;;22.53;43.74;100725.81;10402765;28;20072;-75
2023/07/07 21:20:28;;;;;;;3.60;1.92;;;;;;;22.44;43.88;100716.91;10432192;28;20049;-74
2023/07/07 21:25:33;;;;;;;3.15;2.20;;;;;;;22.32;44.04;100735.69;10436128;28;20478;-75
2023/07/07 21:30:36;;;;;;;4.80;2.42;;;;;;;22.18;45.41;100731.09;10440681;28;20049;-75
2023/07/07 21:35:39;;;;;;;2.75;2.55;;;;;;;22.12;45.46;100726.38;10442264;28;20033;-75
2023/07/07 21:40:45;;;;;;;4.28;2.95;;;;;;;21.75;45.69;100730.97;10444968;28;20041;-75
2023/07/07 21:45:48;;;;;;;6.32;2.20;;;;;;;21.50;45.77;100730.38;10444793;28;20115;-75
2023/07/07 21:50:51;;;;;;;3.10;2.17;;;;;;;21.42;45.86;100736.78;10443684;28;20042;-76
2023/07/07 21:55:55;;;;;;;3.50;2.50;;;;;;;21.33;45.61;100746.09;10437572;28;20055;-74
2023/07/07 22:00:58;;;;;;;3.88;2.33;;;;;;;21.22;46.27;100744.66;10446520;28;20036;-75
2023/07/07 22:06:01;;;;;;;5.28;1.92;;;;;;;21.00;46.49;100743.63;10445678;28;20043;-75
2023/07/07 22:11:06;;;;;;;2.95;2.58;;;;;;;20.84;46.97;100745.66;10450715;28;20052;-75
2023/07/07 22:16:11;;;;;;;3.63;2.17;;;;;;;20.73;47.00;100741.47;10450554;28;20072;-74
2023/07/07 22:21:14;;;;;;;4.30;2.20;;;;;;;20.75;47.07;100736.69;10440720;28;20053;-75
2023/07/07 22:26:20;;;;;;;3.53;2.20;;;;;;;20.78;46.64;100748.09;10441480;28;20491;-74
2023/07/07 22:31:23;;;;;;;2.22;2.03;;;;;;;20.76;47.29;100736.53;10441886;28;20037;-74
2023/07/07 22:36:27;;;;;;;2.72;2.22;;;;;;;20.69;47.07;100738.28;10434682;28;20072;-74
2023/07/07 22:41:31;;;;;;;3.05;2.10;;;;;;;20.83;47.10;100736.63;10435254;28;20052;-74
2023/07/07 22:46:37;;;;;;;4.82;2.25;;;;;;;20.84;47.09;100721.09;10438790;28;20051;-74
2023/07/07 22:51:41;;;;;;;9.13;3.22;;;;;;;20.79;47.72;100724.38;10440940;28;20059;-74
2023/07/07 22:56:46;;;;;;;3.13;2.83;;;;;;;20.63;48.17;100719.06;10441073;28;20594;-74
2023/07/07 23:01:49;;;;;;;3.58;2.00;;;;;;;20.47;48.28;100712.69;10437093;28;20500;-74
2023/07/07 23:06:51;;;;;;;5.35;2.42;;;;;;;20.35;48.64;100711.41;10433353;28;20107;-75
2023/07/07 23:11:56;;;;;;;5.15;2.38;;;;;;;19.98;48.68;100704.75;10435880;28;20049;-74
2023/07/07 23:16:59;;;;;;;5.50;2.20;;;;;;;19.43;49.89;100709.22;10437528;28;20041;-74
2023/07/07 23:22:02;;;;;;;4.50;2.70;;;;;;;19.26;50.40;100713.00;10439583;28;20766;-75
2023/07/07 23:27:11;;;;;;;3.45;2.70;;;;;;;19.21;50.77;100724.41;10438739;28;20047;-74
2023/07/07 23:32:13;;;;;;;2.85;2.03;;;;;;;18.33;53.12;100716.88;10438228;28;20041;-74
2023/07/07 23:37:24;;;;;;;2.53;1.88;;;;;;;18.53;54.10;100719.28;10440983;28;20416;-74